sensor_id;sensor_type;location;lat;lon;timestamp;temperature;humidity
42095;DHT22;27753;55.724;37.612;2023-04-21T00:01:11;10.40;41.40
42095;DHT22;27753;55.724;37.612;2023-04-21T00:03:38;10.30;41.70
42095;DHT22;27753;55.724;37.612;2023-04-21T00:06:04;10.30;42.00
42095;DHT22;27753;55.724;37.612;2023-04-21T00:08:36;10.20;42.10
42095;DHT22;27753;55.724;37.612;2023-04-21T00:11:08;10.20;42.40
42095;DHT22;27753;55.724;37.612;2023-04-21T00:13:34;10.20;42.40
42095;DHT22;27753;55.724;37.612;2023-04-21T00:16:01;10.10;42.40
42095;DHT22;27753;55.724;37.612;2023-04-21T00:18:27;10.00;42.50
42095;DHT22;27753;55.724;37.612;2023-04-21T00:20:53;10.00;42.70
42095;DHT22;27753;55.724;37.612;2023-04-21T00:23:19;10.00;42.70
42095;DHT22;27753;55.724;37.612;2023-04-21T00:25:45;9.90;42.70
42095;DHT22;27753;55.724;37.612;2023-04-21T00:28:11;9.90;42.90
42095;DHT22;27753;55.724;37.612;2023-04-21T00:30:37;9.90;43.00
42095;DHT22;27753;55.724;37.612;2023-04-21T00:33:03;9.90;43.00
42095;DHT22;27753;55.724;37.612;2023-04-21T00:35:28;9.80;43.00
42095;DHT22;27753;55.724;37.612;2023-04-21T00:37:55;9.80;43.20
42095;DHT22;27753;55.724;37.612;2023-04-21T00:40:21;9.80;43.20
42095;DHT22;27753;55.724;37.612;2023-04-21T00:42:47;9.70;43.30
42095;DHT22;27753;55.724;37.612;2023-04-21T00:45:13;9.70;43.50
42095;DHT22;27753;55.724;37.612;2023-04-21T00:47:41;9.70;43.40
42095;DHT22;27753;55.724;37.612;2023-04-21T00:50:08;9.70;43.40
42095;DHT22;27753;55.724;37.612;2023-04-21T00:52:35;9.70;43.50
42095;DHT22;27753;55.724;37.612;2023-04-21T00:55:03;9.60;43.40
42095;DHT22;27753;55.724;37.612;2023-04-21T00:57:31;9.60;43.50
42095;DHT22;27753;55.724;37.612;2023-04-21T00:59:57;9.60;43.60
42095;DHT22;27753;55.724;37.612;2023-04-21T01:02:23;9.50;43.80
42095;DHT22;27753;55.724;37.612;2023-04-21T01:04:49;9.50;43.90
42095;DHT22;27753;55.724;37.612;2023-04-21T01:07:15;9.40;44.00
42095;DHT22;27753;55.724;37.612;2023-04-21T01:09:41;9.40;44.00
42095;DHT22;27753;55.724;37.612;2023-04-21T01:12:09;9.40;44.00
42095;DHT22;27753;55.724;37.612;2023-04-21T01:14:37;9.30;44.10
42095;DHT22;27753;55.724;37.612;2023-04-21T01:17:03;9.30;44.20
42095;DHT22;27753;55.724;37.612;2023-04-21T01:19:35;9.30;44.20
42095;DHT22;27753;55.724;37.612;2023-04-21T01:22:05;9.30;44.30
42095;DHT22;27753;55.724;37.612;2023-04-21T01:24:44;9.20;44.80
42095;DHT22;27753;55.724;37.612;2023-04-21T01:27:12;9.20;44.90
42095;DHT22;27753;55.724;37.612;2023-04-21T01:29:38;9.20;44.10
42095;DHT22;27753;55.724;37.612;2023-04-21T01:32:10;9.20;44.00
42095;DHT22;27753;55.724;37.612;2023-04-21T01:34:37;9.10;44.30
42095;DHT22;27753;55.724;37.612;2023-04-21T01:37:07;9.10;44.40
42095;DHT22;27753;55.724;37.612;2023-04-21T01:39:39;9.10;44.50
42095;DHT22;27753;55.724;37.612;2023-04-21T01:42:05;9.00;44.50
42095;DHT22;27753;55.724;37.612;2023-04-21T01:44:32;9.00;44.50
42095;DHT22;27753;55.724;37.612;2023-04-21T01:46:58;9.00;44.60
42095;DHT22;27753;55.724;37.612;2023-04-21T01:49:23;9.00;44.80
42095;DHT22;27753;55.724;37.612;2023-04-21T01:51:49;9.00;44.60
42095;DHT22;27753;55.724;37.612;2023-04-21T01:54:15;9.10;44.50
42095;DHT22;27753;55.724;37.612;2023-04-21T01:56:41;9.00;44.40
42095;DHT22;27753;55.724;37.612;2023-04-21T01:59:07;9.10;44.30
42095;DHT22;27753;55.724;37.612;2023-04-21T02:01:33;9.00;44.30
42095;DHT22;27753;55.724;37.612;2023-04-21T02:04:01;9.00;44.40
42095;DHT22;27753;55.724;37.612;2023-04-21T02:06:27;9.00;44.50
42095;DHT22;27753;55.724;37.612;2023-04-21T02:08:53;9.00;44.50
42095;DHT22;27753;55.724;37.612;2023-04-21T02:11:18;9.00;44.60
42095;DHT22;27753;55.724;37.612;2023-04-21T02:13:44;8.90;44.60
42095;DHT22;27753;55.724;37.612;2023-04-21T02:16:11;8.90;44.70
42095;DHT22;27753;55.724;37.612;2023-04-21T02:18:37;8.90;44.70
42095;DHT22;27753;55.724;37.612;2023-04-21T02:21:05;9.00;44.60
42095;DHT22;27753;55.724;37.612;2023-04-21T02:23:31;9.00;44.60
42095;DHT22;27753;55.724;37.612;2023-04-21T02:25:57;9.00;44.60
42095;DHT22;27753;55.724;37.612;2023-04-21T02:28:23;9.00;44.60
42095;DHT22;27753;55.724;37.612;2023-04-21T02:30:49;9.00;44.70
42095;DHT22;27753;55.724;37.612;2023-04-21T02:33:15;8.90;44.70
42095;DHT22;27753;55.724;37.612;2023-04-21T02:35:41;8.90;44.90
42095;DHT22;27753;55.724;37.612;2023-04-21T02:38:07;8.90;44.90
42095;DHT22;27753;55.724;37.612;2023-04-21T02:40:33;8.90;44.90
42095;DHT22;27753;55.724;37.612;2023-04-21T02:42:59;8.90;44.90
42095;DHT22;27753;55.724;37.612;2023-04-21T02:45:26;9.00;44.80
42095;DHT22;27753;55.724;37.612;2023-04-21T02:47:51;9.00;44.90
42095;DHT22;27753;55.724;37.612;2023-04-21T02:50:17;9.00;44.70
42095;DHT22;27753;55.724;37.612;2023-04-21T02:52:43;9.00;44.50
42095;DHT22;27753;55.724;37.612;2023-04-21T02:55:12;9.10;44.40
42095;DHT22;27753;55.724;37.612;2023-04-21T02:57:37;9.20;44.40
42095;DHT22;27753;55.724;37.612;2023-04-21T03:00:04;9.20;44.40
42095;DHT22;27753;55.724;37.612;2023-04-21T03:02:31;9.30;44.30
42095;DHT22;27753;55.724;37.612;2023-04-21T03:04:57;9.30;44.40
42095;DHT22;27753;55.724;37.612;2023-04-21T03:07:23;9.40;44.20
42095;DHT22;27753;55.724;37.612;2023-04-21T03:09:49;9.40;44.00
42095;DHT22;27753;55.724;37.612;2023-04-21T03:12:15;9.50;44.00
42095;DHT22;27753;55.724;37.612;2023-04-21T03:14:41;9.60;43.90
42095;DHT22;27753;55.724;37.612;2023-04-21T03:17:06;9.60;44.50
42095;DHT22;27753;55.724;37.612;2023-04-21T03:19:32;9.60;43.90
42095;DHT22;27753;55.724;37.612;2023-04-21T03:21:58;9.70;43.90
42095;DHT22;27753;55.724;37.612;2023-04-21T03:24:24;9.70;43.80
42095;DHT22;27753;55.724;37.612;2023-04-21T03:26:53;9.70;43.70
42095;DHT22;27753;55.724;37.612;2023-04-21T03:29:19;9.80;43.50
42095;DHT22;27753;55.724;37.612;2023-04-21T03:31:45;9.90;43.50
42095;DHT22;27753;55.724;37.612;2023-04-21T03:34:11;9.90;43.30
42095;DHT22;27753;55.724;37.612;2023-04-21T03:36:37;10.00;43.20
42095;DHT22;27753;55.724;37.612;2023-04-21T03:39:03;10.00;43.10
42095;DHT22;27753;55.724;37.612;2023-04-21T03:41:29;10.00;43.20
42095;DHT22;27753;55.724;37.612;2023-04-21T03:43:55;10.10;43.00
42095;DHT22;27753;55.724;37.612;2023-04-21T03:46:21;10.10;43.00
42095;DHT22;27753;55.724;37.612;2023-04-21T03:48:47;10.20;43.20
42095;DHT22;27753;55.724;37.612;2023-04-21T03:51:13;10.30;43.30
42095;DHT22;27753;55.724;37.612;2023-04-21T03:53:39;10.30;43.60
42095;DHT22;27753;55.724;37.612;2023-04-21T03:56:06;10.30;43.70
42095;DHT22;27753;55.724;37.612;2023-04-21T03:58:32;10.30;43.70
42095;DHT22;27753;55.724;37.612;2023-04-21T04:00:57;10.20;43.80
42095;DHT22;27753;55.724;37.612;2023-04-21T04:03:23;10.30;43.60
42095;DHT22;27753;55.724;37.612;2023-04-21T04:05:49;10.30;43.50
42095;DHT22;27753;55.724;37.612;2023-04-21T04:08:15;10.50;43.20
42095;DHT22;27753;55.724;37.612;2023-04-21T04:10:41;10.50;43.70
42095;DHT22;27753;55.724;37.612;2023-04-21T04:13:07;10.60;43.20
42095;DHT22;27753;55.724;37.612;2023-04-21T04:15:33;10.60;43.00
42095;DHT22;27753;55.724;37.612;2023-04-21T04:17:59;10.60;42.80
42095;DHT22;27753;55.724;37.612;2023-04-21T04:20:25;10.70;43.00
42095;DHT22;27753;55.724;37.612;2023-04-21T04:22:51;10.80;42.90
42095;DHT22;27753;55.724;37.612;2023-04-21T04:25:17;10.80;42.60
42095;DHT22;27753;55.724;37.612;2023-04-21T04:27:44;10.90;42.60
42095;DHT22;27753;55.724;37.612;2023-04-21T04:30:11;11.00;42.60
42095;DHT22;27753;55.724;37.612;2023-04-21T04:32:37;10.90;43.00
42095;DHT22;27753;55.724;37.612;2023-04-21T04:35:07;11.00;42.80
42095;DHT22;27753;55.724;37.612;2023-04-21T04:37:35;11.30;43.00
42095;DHT22;27753;55.724;37.612;2023-04-21T04:40:02;11.80;41.40
42095;DHT22;27753;55.724;37.612;2023-04-21T04:42:32;12.40;41.50
42095;DHT22;27753;55.724;37.612;2023-04-21T04:44:59;13.00;40.00
42095;DHT22;27753;55.724;37.612;2023-04-21T04:47:26;13.60;39.00
42095;DHT22;27753;55.724;37.612;2023-04-21T04:49:52;14.60;37.80
42095;DHT22;27753;55.724;37.612;2023-04-21T04:52:18;14.90;37.70
42095;DHT22;27753;55.724;37.612;2023-04-21T04:54:44;15.50;36.60
42095;DHT22;27753;55.724;37.612;2023-04-21T04:57:09;15.90;35.60
42095;DHT22;27753;55.724;37.612;2023-04-21T04:59:36;16.30;35.30
42095;DHT22;27753;55.724;37.612;2023-04-21T05:02:02;16.30;34.70
42095;DHT22;27753;55.724;37.612;2023-04-21T05:04:28;16.60;34.70
42095;DHT22;27753;55.724;37.612;2023-04-21T05:06:54;17.00;34.60
42095;DHT22;27753;55.724;37.612;2023-04-21T05:09:20;17.50;33.80
42095;DHT22;27753;55.724;37.612;2023-04-21T05:11:46;18.00;33.30
42095;DHT22;27753;55.724;37.612;2023-04-21T05:14:12;18.30;32.50
42095;DHT22;27753;55.724;37.612;2023-04-21T05:16:38;18.30;32.30
42095;DHT22;27753;55.724;37.612;2023-04-21T05:23:58;19.40;30.80
42095;DHT22;27753;55.724;37.612;2023-04-21T05:26:25;19.60;31.20
42095;DHT22;27753;55.724;37.612;2023-04-21T05:28:52;19.60;30.90
42095;DHT22;27753;55.724;37.612;2023-04-21T05:31:18;19.80;30.70
42095;DHT22;27753;55.724;37.612;2023-04-21T05:33:43;20.00;30.40
42095;DHT22;27753;55.724;37.612;2023-04-21T05:36:10;20.20;30.10
42095;DHT22;27753;55.724;37.612;2023-04-21T05:38:36;20.90;29.80
42095;DHT22;27753;55.724;37.612;2023-04-21T05:41:03;22.00;29.30
42095;DHT22;27753;55.724;37.612;2023-04-21T05:43:29;22.90;28.80
42095;DHT22;27753;55.724;37.612;2023-04-21T05:45:58;23.80;27.70
42095;DHT22;27753;55.724;37.612;2023-04-21T05:48:24;24.20;27.50
42095;DHT22;27753;55.724;37.612;2023-04-21T05:50:50;23.60;27.40
42095;DHT22;27753;55.724;37.612;2023-04-21T05:53:16;23.50;27.60
42095;DHT22;27753;55.724;37.612;2023-04-21T05:55:42;24.40;27.50
42095;DHT22;27753;55.724;37.612;2023-04-21T05:58:08;25.20;26.70
42095;DHT22;27753;55.724;37.612;2023-04-21T06:00:34;25.40;26.40
42095;DHT22;27753;55.724;37.612;2023-04-21T06:03:00;25.60;26.40
42095;DHT22;27753;55.724;37.612;2023-04-21T06:05:26;26.30;26.20
42095;DHT22;27753;55.724;37.612;2023-04-21T06:07:51;27.10;26.00
42095;DHT22;27753;55.724;37.612;2023-04-21T06:10:17;27.70;25.90
42095;DHT22;27753;55.724;37.612;2023-04-21T06:12:44;28.20;25.50
42095;DHT22;27753;55.724;37.612;2023-04-21T06:15:10;28.70;25.40
42095;DHT22;27753;55.724;37.612;2023-04-21T06:17:36;29.10;25.00
42095;DHT22;27753;55.724;37.612;2023-04-21T06:20:02;28.40;25.20
42095;DHT22;27753;55.724;37.612;2023-04-21T06:22:28;27.60;25.30
42095;DHT22;27753;55.724;37.612;2023-04-21T06:24:55;27.50;25.30
42095;DHT22;27753;55.724;37.612;2023-04-21T06:27:20;27.30;25.30
42095;DHT22;27753;55.724;37.612;2023-04-21T06:29:46;27.90;25.40
42095;DHT22;27753;55.724;37.612;2023-04-21T06:32:12;28.00;25.20
42095;DHT22;27753;55.724;37.612;2023-04-21T06:34:38;28.20;25.10
42095;DHT22;27753;55.724;37.612;2023-04-21T06:37:04;27.90;25.30
42095;DHT22;27753;55.724;37.612;2023-04-21T06:39:30;27.00;25.40
42095;DHT22;27753;55.724;37.612;2023-04-21T06:41:56;26.90;25.50
42095;DHT22;27753;55.724;37.612;2023-04-21T06:44:25;27.60;25.50
42095;DHT22;27753;55.724;37.612;2023-04-21T06:46:51;28.00;25.30
42095;DHT22;27753;55.724;37.612;2023-04-21T06:49:17;28.10;25.10
42095;DHT22;27753;55.724;37.612;2023-04-21T06:51:43;27.90;25.20
42095;DHT22;27753;55.724;37.612;2023-04-21T06:54:09;27.10;25.30
42095;DHT22;27753;55.724;37.612;2023-04-21T06:56:35;26.70;25.50
42095;DHT22;27753;55.724;37.612;2023-04-21T06:59:01;26.90;25.60
42095;DHT22;27753;55.724;37.612;2023-04-21T07:01:27;27.50;25.50
42095;DHT22;27753;55.724;37.612;2023-04-21T07:03:53;27.90;25.10
42095;DHT22;27753;55.724;37.612;2023-04-21T07:06:19;28.20;25.00
42095;DHT22;27753;55.724;37.612;2023-04-21T07:08:47;29.40;24.90
42095;DHT22;27753;55.724;37.612;2023-04-21T07:11:13;29.20;24.50
42095;DHT22;27753;55.724;37.612;2023-04-21T07:13:39;29.90;24.20
42095;DHT22;27753;55.724;37.612;2023-04-21T07:16:05;30.50;24.00
42095;DHT22;27753;55.724;37.612;2023-04-21T07:18:31;31.00;24.00
42095;DHT22;27753;55.724;37.612;2023-04-21T07:20:57;30.60;23.80
42095;DHT22;27753;55.724;37.612;2023-04-21T07:23:23;30.60;24.10
42095;DHT22;27753;55.724;37.612;2023-04-21T07:25:50;30.90;24.00
42095;DHT22;27753;55.724;37.612;2023-04-21T07:28:16;30.60;23.90
42095;DHT22;27753;55.724;37.612;2023-04-21T07:30:42;30.00;23.90
42095;DHT22;27753;55.724;37.612;2023-04-21T07:33:08;29.00;24.40
42095;DHT22;27753;55.724;37.612;2023-04-21T07:35:34;29.10;24.40
42095;DHT22;27753;55.724;37.612;2023-04-21T07:38:00;29.70;24.30
42095;DHT22;27753;55.724;37.612;2023-04-21T07:40:26;30.50;24.20
42095;DHT22;27753;55.724;37.612;2023-04-21T07:42:52;30.60;23.90
42095;DHT22;27753;55.724;37.612;2023-04-21T07:45:17;30.90;23.80
42095;DHT22;27753;55.724;37.612;2023-04-21T07:47:43;30.90;23.60
42095;DHT22;27753;55.724;37.612;2023-04-21T07:50:10;30.90;23.60
42095;DHT22;27753;55.724;37.612;2023-04-21T07:52:36;30.70;24.00
42095;DHT22;27753;55.724;37.612;2023-04-21T07:55:02;30.80;23.60
42095;DHT22;27753;55.724;37.612;2023-04-21T07:57:28;30.20;23.70
42095;DHT22;27753;55.724;37.612;2023-04-21T07:59:56;30.50;23.80
42095;DHT22;27753;55.724;37.612;2023-04-21T08:02:22;31.40;23.70
42095;DHT22;27753;55.724;37.612;2023-04-21T08:04:48;31.40;23.30
42095;DHT22;27753;55.724;37.612;2023-04-21T08:07:14;30.30;23.60
42095;DHT22;27753;55.724;37.612;2023-04-21T08:09:40;30.30;23.40
42095;DHT22;27753;55.724;37.612;2023-04-21T08:12:06;31.20;23.60
42095;DHT22;27753;55.724;37.612;2023-04-21T08:14:32;31.50;23.50
42095;DHT22;27753;55.724;37.612;2023-04-21T08:16:58;30.70;23.10
42095;DHT22;27753;55.724;37.612;2023-04-21T08:19:24;29.90;23.40
42095;DHT22;27753;55.724;37.612;2023-04-21T08:21:50;29.90;23.70
42095;DHT22;27753;55.724;37.612;2023-04-21T08:24:16;30.10;23.70
42095;DHT22;27753;55.724;37.612;2023-04-21T08:26:42;30.30;23.60
42095;DHT22;27753;55.724;37.612;2023-04-21T08:29:09;30.60;23.70
42095;DHT22;27753;55.724;37.612;2023-04-21T08:31:35;30.70;23.50
42095;DHT22;27753;55.724;37.612;2023-04-21T08:34:01;30.40;23.60
42095;DHT22;27753;55.724;37.612;2023-04-21T08:36:27;30.90;23.60
42095;DHT22;27753;55.724;37.612;2023-04-21T08:38:57;31.80;23.50
42095;DHT22;27753;55.724;37.612;2023-04-21T08:41:24;31.70;23.40
42095;DHT22;27753;55.724;37.612;2023-04-21T08:43:50;31.40;23.30
42095;DHT22;27753;55.724;37.612;2023-04-21T08:46:18;30.70;23.40
42095;DHT22;27753;55.724;37.612;2023-04-21T08:48:45;30.40;23.60
42095;DHT22;27753;55.724;37.612;2023-04-21T08:51:17;30.10;23.80
42095;DHT22;27753;55.724;37.612;2023-04-21T08:53:44;30.70;24.00
42095;DHT22;27753;55.724;37.612;2023-04-21T08:56:10;31.70;23.70
42095;DHT22;27753;55.724;37.612;2023-04-21T08:58:36;30.70;23.90
42095;DHT22;27753;55.724;37.612;2023-04-21T09:01:02;31.00;23.90
42095;DHT22;27753;55.724;37.612;2023-04-21T09:03:29;31.20;23.70
42095;DHT22;27753;55.724;37.612;2023-04-21T09:06:00;31.70;23.70
42095;DHT22;27753;55.724;37.612;2023-04-21T09:08:27;31.80;23.60
42095;DHT22;27753;55.724;37.612;2023-04-21T09:10:55;30.80;23.80
42095;DHT22;27753;55.724;37.612;2023-04-21T09:13:29;30.70;24.00
42095;DHT22;27753;55.724;37.612;2023-04-21T09:15:56;31.00;24.20
42095;DHT22;27753;55.724;37.612;2023-04-21T09:18:24;32.00;23.90
42095;DHT22;27753;55.724;37.612;2023-04-21T09:21:14;32.10;23.90
42095;DHT22;27753;55.724;37.612;2023-04-21T09:23:46;31.80;23.90
42095;DHT22;27753;55.724;37.612;2023-04-21T09:26:12;31.50;23.80
42095;DHT22;27753;55.724;37.612;2023-04-21T09:28:42;30.70;24.00
42095;DHT22;27753;55.724;37.612;2023-04-21T09:31:18;30.50;24.30
42095;DHT22;27753;55.724;37.612;2023-04-21T09:33:52;30.50;24.40
42095;DHT22;27753;55.724;37.612;2023-04-21T09:36:23;30.90;24.20
42095;DHT22;27753;55.724;37.612;2023-04-21T09:39:09;31.30;24.20
42095;DHT22;27753;55.724;37.612;2023-04-21T09:41:35;31.30;24.10
42095;DHT22;27753;55.724;37.612;2023-04-21T09:44:01;30.70;24.40
42095;DHT22;27753;55.724;37.612;2023-04-21T09:46:32;31.00;24.40
42095;DHT22;27753;55.724;37.612;2023-04-21T09:49:03;32.00;24.10
42095;DHT22;27753;55.724;37.612;2023-04-21T09:51:30;32.80;23.90
42095;DHT22;27753;55.724;37.612;2023-04-21T09:53:59;33.70;23.90
42095;DHT22;27753;55.724;37.612;2023-04-21T09:56:28;33.50;23.40
42095;DHT22;27753;55.724;37.612;2023-04-21T09:59:00;31.10;24.00
42095;DHT22;27753;55.724;37.612;2023-04-21T10:01:29;30.30;24.80
42095;DHT22;27753;55.724;37.612;2023-04-21T10:03:55;31.00;24.60
42095;DHT22;27753;55.724;37.612;2023-04-21T10:06:22;31.40;24.80
42095;DHT22;27753;55.724;37.612;2023-04-21T10:08:50;31.90;24.70
42095;DHT22;27753;55.724;37.612;2023-04-21T10:11:17;32.20;24.00
42095;DHT22;27753;55.724;37.612;2023-04-21T10:13:45;32.00;24.20
42095;DHT22;27753;55.724;37.612;2023-04-21T10:16:11;31.00;24.00
42095;DHT22;27753;55.724;37.612;2023-04-21T10:18:41;28.80;24.60
42095;DHT22;27753;55.724;37.612;2023-04-21T10:21:09;27.30;25.70
42095;DHT22;27753;55.724;37.612;2023-04-21T10:23:43;26.30;26.00
42095;DHT22;27753;55.724;37.612;2023-04-21T10:26:16;24.90;26.70
42095;DHT22;27753;55.724;37.612;2023-04-21T10:28:43;23.50;27.80
42095;DHT22;27753;55.724;37.612;2023-04-21T10:33:38;22.50;28.60
42095;DHT22;27753;55.724;37.612;2023-04-21T10:36:04;21.10;29.90
42095;DHT22;27753;55.724;37.612;2023-04-21T10:38:41;20.80;30.00
42095;DHT22;27753;55.724;37.612;2023-04-21T10:41:31;20.60;30.30
42095;DHT22;27753;55.724;37.612;2023-04-21T10:43:58;20.30;30.30
42095;DHT22;27753;55.724;37.612;2023-04-21T10:59:36;18.30;32.80
42095;DHT22;27753;55.724;37.612;2023-04-21T11:02:08;18.40;33.40
42095;DHT22;27753;55.724;37.612;2023-04-21T11:04:35;18.50;33.20
42095;DHT22;27753;55.724;37.612;2023-04-21T11:07:09;18.40;33.20
42095;DHT22;27753;55.724;37.612;2023-04-21T11:09:42;18.30;33.30
42095;DHT22;27753;55.724;37.612;2023-04-21T11:12:15;18.10;33.50
42095;DHT22;27753;55.724;37.612;2023-04-21T11:14:45;18.00;34.30
42095;DHT22;27753;55.724;37.612;2023-04-21T11:17:17;17.90;34.40
42095;DHT22;27753;55.724;37.612;2023-04-21T11:19:51;17.80;34.20
42095;DHT22;27753;55.724;37.612;2023-04-21T11:22:18;17.70;34.50
42095;DHT22;27753;55.724;37.612;2023-04-21T11:24:45;17.60;34.80
42095;DHT22;27753;55.724;37.612;2023-04-21T11:27:14;17.60;34.20
42095;DHT22;27753;55.724;37.612;2023-04-21T11:29:41;17.70;34.90
42095;DHT22;27753;55.724;37.612;2023-04-21T11:32:10;17.80;34.90
42095;DHT22;27753;55.724;37.612;2023-04-21T11:34:37;17.90;34.50
42095;DHT22;27753;55.724;37.612;2023-04-21T11:37:03;18.00;34.10
42095;DHT22;27753;55.724;37.612;2023-04-21T11:39:31;18.10;34.20
42095;DHT22;27753;55.724;37.612;2023-04-21T11:41:57;18.20;33.90
42095;DHT22;27753;55.724;37.612;2023-04-21T11:44:37;18.30;33.80
42095;DHT22;27753;55.724;37.612;2023-04-21T11:47:22;18.40;33.80
42095;DHT22;27753;55.724;37.612;2023-04-21T11:49:52;18.20;34.00
42095;DHT22;27753;55.724;37.612;2023-04-21T11:52:29;18.10;34.10
42095;DHT22;27753;55.724;37.612;2023-04-21T11:57:29;18.00;34.40
42095;DHT22;27753;55.724;37.612;2023-04-21T12:00:00;17.90;34.60
42095;DHT22;27753;55.724;37.612;2023-04-21T12:02:28;17.70;34.90
42095;DHT22;27753;55.724;37.612;2023-04-21T12:07:31;17.80;35.10
42095;DHT22;27753;55.724;37.612;2023-04-21T12:09:59;17.80;35.10
42095;DHT22;27753;55.724;37.612;2023-04-21T12:12:25;17.90;34.90
42095;DHT22;27753;55.724;37.612;2023-04-21T12:14:51;17.80;34.70
42095;DHT22;27753;55.724;37.612;2023-04-21T12:17:18;17.80;34.70
42095;DHT22;27753;55.724;37.612;2023-04-21T12:19:44;17.90;34.90
42095;DHT22;27753;55.724;37.612;2023-04-21T12:22:12;17.70;34.70
42095;DHT22;27753;55.724;37.612;2023-04-21T12:24:39;17.60;34.60
42095;DHT22;27753;55.724;37.612;2023-04-21T12:27:06;17.40;34.90
42095;DHT22;27753;55.724;37.612;2023-04-21T12:29:32;17.40;34.90
42095;DHT22;27753;55.724;37.612;2023-04-21T12:32:00;17.50;35.00
42095;DHT22;27753;55.724;37.612;2023-04-21T12:34:26;17.60;34.50
42095;DHT22;27753;55.724;37.612;2023-04-21T12:36:52;17.50;34.30
42095;DHT22;27753;55.724;37.612;2023-04-21T12:39:18;17.40;34.10
42095;DHT22;27753;55.724;37.612;2023-04-21T12:41:46;17.30;34.50
42095;DHT22;27753;55.724;37.612;2023-04-21T12:44:13;17.10;34.80
42095;DHT22;27753;55.724;37.612;2023-04-21T12:46:42;16.90;35.00
42095;DHT22;27753;55.724;37.612;2023-04-21T12:49:08;16.70;35.10
42095;DHT22;27753;55.724;37.612;2023-04-21T12:51:36;16.60;35.70
42095;DHT22;27753;55.724;37.612;2023-04-21T12:54:02;16.60;35.80
42095;DHT22;27753;55.724;37.612;2023-04-21T12:56:28;16.50;36.00
42095;DHT22;27753;55.724;37.612;2023-04-21T12:58:55;16.50;35.80
42095;DHT22;27753;55.724;37.612;2023-04-21T13:01:21;16.50;35.80
42095;DHT22;27753;55.724;37.612;2023-04-21T13:03:53;16.50;35.80
42095;DHT22;27753;55.724;37.612;2023-04-21T13:06:22;16.50;35.40
42095;DHT22;27753;55.724;37.612;2023-04-21T13:08:47;16.40;35.50
42095;DHT22;27753;55.724;37.612;2023-04-21T13:11:13;16.50;35.80
42095;DHT22;27753;55.724;37.612;2023-04-21T13:13:39;16.50;35.70
42095;DHT22;27753;55.724;37.612;2023-04-21T13:16:05;16.60;35.60
42095;DHT22;27753;55.724;37.612;2023-04-21T13:18:31;16.60;35.70
42095;DHT22;27753;55.724;37.612;2023-04-21T13:20:59;16.70;35.70
42095;DHT22;27753;55.724;37.612;2023-04-21T13:23:25;16.80;36.00
42095;DHT22;27753;55.724;37.612;2023-04-21T13:25:55;16.80;35.90
42095;DHT22;27753;55.724;37.612;2023-04-21T13:28:21;16.90;35.80
42095;DHT22;27753;55.724;37.612;2023-04-21T13:30:47;16.90;35.50
42095;DHT22;27753;55.724;37.612;2023-04-21T13:33:13;16.90;35.40
42095;DHT22;27753;55.724;37.612;2023-04-21T13:35:39;16.90;35.50
42095;DHT22;27753;55.724;37.612;2023-04-21T13:38:05;16.90;35.40
42095;DHT22;27753;55.724;37.612;2023-04-21T13:40:31;17.20;35.40
42095;DHT22;27753;55.724;37.612;2023-04-21T13:42:57;17.40;35.00
42095;DHT22;27753;55.724;37.612;2023-04-21T13:45:24;17.50;34.40
42095;DHT22;27753;55.724;37.612;2023-04-21T13:47:51;17.40;34.60
42095;DHT22;27753;55.724;37.612;2023-04-21T13:50:19;17.30;34.50
42095;DHT22;27753;55.724;37.612;2023-04-21T13:52:45;17.30;34.60
42095;DHT22;27753;55.724;37.612;2023-04-21T13:55:11;17.40;34.60
42095;DHT22;27753;55.724;37.612;2023-04-21T13:57:37;17.40;34.40
42095;DHT22;27753;55.724;37.612;2023-04-21T14:00:07;17.30;34.80
42095;DHT22;27753;55.724;37.612;2023-04-21T14:02:37;17.40;35.00
42095;DHT22;27753;55.724;37.612;2023-04-21T14:05:03;18.30;34.40
42095;DHT22;27753;55.724;37.612;2023-04-21T14:07:29;19.30;33.50
42095;DHT22;27753;55.724;37.612;2023-04-21T14:09:55;20.10;32.50
42095;DHT22;27753;55.724;37.612;2023-04-21T14:12:22;20.40;31.80
42095;DHT22;27753;55.724;37.612;2023-04-21T14:14:51;20.80;31.80
42095;DHT22;27753;55.724;37.612;2023-04-21T14:17:17;21.20;31.20
42095;DHT22;27753;55.724;37.612;2023-04-21T14:19:42;21.40;30.30
42095;DHT22;27753;55.724;37.612;2023-04-21T14:22:08;21.20;30.10
42095;DHT22;27753;55.724;37.612;2023-04-21T14:24:34;20.50;30.50
42095;DHT22;27753;55.724;37.612;2023-04-21T14:27:00;19.60;31.50
42095;DHT22;27753;55.724;37.612;2023-04-21T14:29:29;18.80;32.30
42095;DHT22;27753;55.724;37.612;2023-04-21T14:31:58;18.30;33.00
42095;DHT22;27753;55.724;37.612;2023-04-21T14:34:24;17.80;33.70
42095;DHT22;27753;55.724;37.612;2023-04-21T14:36:51;17.50;34.40
42095;DHT22;27753;55.724;37.612;2023-04-21T14:39:17;17.10;34.70
42095;DHT22;27753;55.724;37.612;2023-04-21T14:41:43;16.90;35.00
42095;DHT22;27753;55.724;37.612;2023-04-21T14:44:09;16.70;34.60
42095;DHT22;27753;55.724;37.612;2023-04-21T14:46:35;16.60;34.80
42095;DHT22;27753;55.724;37.612;2023-04-21T14:49:01;16.50;35.10
42095;DHT22;27753;55.724;37.612;2023-04-21T14:51:27;16.40;35.20
42095;DHT22;27753;55.724;37.612;2023-04-21T14:53:53;16.40;35.30
42095;DHT22;27753;55.724;37.612;2023-04-21T14:56:20;16.30;35.50
42095;DHT22;27753;55.724;37.612;2023-04-21T14:58:46;16.30;35.60
42095;DHT22;27753;55.724;37.612;2023-04-21T15:01:12;16.30;35.80
42095;DHT22;27753;55.724;37.612;2023-04-21T15:03:38;16.20;35.90
42095;DHT22;27753;55.724;37.612;2023-04-21T15:06:04;16.20;36.20
42095;DHT22;27753;55.724;37.612;2023-04-21T15:08:30;16.20;36.00
42095;DHT22;27753;55.724;37.612;2023-04-21T15:10:57;16.20;36.20
42095;DHT22;27753;55.724;37.612;2023-04-21T15:13:23;16.10;36.10
42095;DHT22;27753;55.724;37.612;2023-04-21T15:15:49;16.10;36.20
42095;DHT22;27753;55.724;37.612;2023-04-21T15:18:18;16.10;36.40
42095;DHT22;27753;55.724;37.612;2023-04-21T15:20:45;16.00;36.30
42095;DHT22;27753;55.724;37.612;2023-04-21T15:23:11;16.00;36.30
42095;DHT22;27753;55.724;37.612;2023-04-21T15:25:37;16.10;36.70
42095;DHT22;27753;55.724;37.612;2023-04-21T15:28:03;16.00;36.70
42095;DHT22;27753;55.724;37.612;2023-04-21T15:30:32;16.10;36.80
42095;DHT22;27753;55.724;37.612;2023-04-21T15:32:57;16.00;36.80
42095;DHT22;27753;55.724;37.612;2023-04-21T15:35:25;16.10;37.00
42095;DHT22;27753;55.724;37.612;2023-04-21T15:37:51;16.20;37.30
42095;DHT22;27753;55.724;37.612;2023-04-21T15:40:17;16.20;37.60
42095;DHT22;27753;55.724;37.612;2023-04-21T15:42:43;16.20;37.80
42095;DHT22;27753;55.724;37.612;2023-04-21T15:45:09;16.20;37.70